Time;durP1;ratioP1;P1;durP2;ratioP2;P2;SDS_P1;SDS_P2;PMS_P1;PMS_P2;Temp;Humidity;BMP_temperature;BMP_pressure;BME280_temperature;BME280_humidity;BME280_pressure;Samples;Min_cycle;Max_cycle;Signal;HPM_P1;HPM_P2
2023/12/18 00:00:39;;;;;;;1.63;1.25;;;6.70;99.90;;;;;;5042621;28;20536;-67
2023/12/18 00:03:06;;;;;;;1.73;1.27;;;6.70;99.90;;;;;;5045136;28;20680;-67
2023/12/18 00:05:31;;;;;;;2.25;1.23;;;6.70;99.90;;;;;;5046062;28;20110;-67
2023/12/18 00:07:57;;;;;;;2.90;1.30;;;6.70;99.90;;;;;;5035451;28;20556;-67
2023/12/18 00:10:23;;;;;;;1.33;1.10;;;6.60;99.90;;;;;;5039323;28;20025;-67
2023/12/18 00:12:49;;;;;;;3.25;1.40;;;6.60;99.90;;;;;;5037310;28;20444;-67
2023/12/18 00:15:15;;;;;;;1.42;1.25;;;6.60;99.90;;;;;;5041167;28;20093;-67
2023/12/18 00:17:41;;;;;;;2.47;1.52;;;6.50;99.90;;;;;;5042992;28;20087;-66
2023/12/18 00:20:07;;;;;;;1.50;1.20;;;6.50;99.90;;;;;;5042435;28;20037;-67
2023/12/18 00:22:33;;;;;;;1.90;1.20;;;6.40;99.90;;;;;;5042378;28;20036;-66
2023/12/18 00:24:58;;;;;;;2.75;1.25;;;6.40;99.90;;;;;;5046108;28;20620;-66
2023/12/18 00:27:25;;;;;;;2.55;1.60;;;6.30;99.90;;;;;;5041964;28;20132;-67
2023/12/18 00:29:51;;;;;;;2.33;1.50;;;6.30;99.90;;;;;;5046222;28;20025;-67
2023/12/18 00:32:17;;;;;;;1.90;1.30;;;6.30;99.90;;;;;;5045853;28;20043;-67
2023/12/18 00:34:43;;;;;;;2.45;1.45;;;6.30;99.90;;;;;;5038559;28;20033;-66
2023/12/18 00:37:09;;;;;;;3.78;1.50;;;6.30;99.90;;;;;;5044256;28;20477;-66
2023/12/18 00:39:35;;;;;;;2.25;1.75;;;6.30;99.90;;;;;;5038811;28;20056;-67
2023/12/18 00:42:01;;;;;;;2.28;1.42;;;6.30;99.90;;;;;;5042174;28;20032;-67
2023/12/18 00:44:27;;;;;;;2.30;1.27;;;6.20;99.90;;;;;;5045094;28;20086;-67
2023/12/18 00:46:53;;;;;;;1.85;1.60;;;6.20;99.90;;;;;;5041261;28;20033;-67
2023/12/18 00:49:19;;;;;;;3.65;1.63;;;6.20;99.90;;;;;;5044791;28;20124;-67
2023/12/18 00:51:45;;;;;;;1.85;1.48;;;6.20;99.90;;;;;;5041836;28;20124;-67
2023/12/18 00:54:11;;;;;;;2.88;1.77;;;6.20;99.90;;;;;;5036407;28;20038;-66
2023/12/18 00:56:36;;;;;;;2.90;1.65;;;6.20;99.90;;;;;;5044390;28;20037;-67
2023/12/18 00:59:02;;;;;;;6.18;1.85;;;6.20;99.90;;;;;;5041176;28;20715;-66
2023/12/18 01:01:28;;;;;;;3.33;1.92;;;6.10;99.90;;;;;;5044539;28;20048;-67
2023/12/18 01:03:54;;;;;;;2.42;1.70;;;6.10;99.90;;;;;;5039826;28;20125;-66
2023/12/18 01:06:20;;;;;;;3.45;1.88;;;6.10;99.90;;;;;;5039405;28;20037;-66
2023/12/18 01:08:46;;;;;;;2.63;1.65;;;6.10;99.90;;;;;;5044731;28;20089;-67
2023/12/18 01:11:12;;;;;;;3.15;1.77;;;6.10;99.90;;;;;;5045546;28;20106;-66
2023/12/18 01:13:37;;;;;;;2.35;1.60;;;6.10;99.90;;;;;;5045430;28;20650;-67
2023/12/18 01:16:03;;;;;;;1.88;1.60;;;6.10;99.90;;;;;;5043113;28;20037;-67
2023/12/18 01:18:29;;;;;;;2.58;1.60;;;6.10;99.90;;;;;;5036939;28;20079;-67
2023/12/18 01:20:55;;;;;;;3.95;1.73;;;6.10;99.90;;;;;;5041886;28;20060;-66
2023/12/18 01:23:21;;;;;;;2.28;1.50;;;6.10;99.90;;;;;;5042512;28;20569;-66
2023/12/18 01:25:47;;;;;;;2.60;1.75;;;6.10;99.90;;;;;;5032697;28;20123;-67
2023/12/18 01:28:12;;;;;;;2.20;1.70;;;6.10;99.90;;;;;;5043030;28;20060;-67
2023/12/18 01:30:38;;;;;;;3.30;1.70;;;6.10;99.90;;;;;;5039941;28;20059;-67
2023/12/18 01:33:04;;;;;;;3.20;1.88;;;6.10;99.90;;;;;;5041402;28;20045;-66
2023/12/18 01:35:30;;;;;;;3.83;2.00;;;6.10;99.90;;;;;;5045292;28;20041;-67
2023/12/18 01:37:56;;;;;;;1.95;1.52;;;6.10;99.90;;;;;;5045627;28;20075;-67
2023/12/18 01:40:22;;;;;;;3.40;1.83;;;6.10;99.90;;;;;;5038832;28;20143;-66
2023/12/18 01:42:48;;;;;;;3.13;1.80;;;6.10;99.90;;;;;;5038233;28;20116;-67
2023/12/18 01:45:13;;;;;;;5.38;1.70;;;6.10;99.90;;;;;;5039304;28;20037;-67
2023/12/18 01:47:40;;;;;;;2.92;1.80;;;6.00;99.90;;;;;;5043808;28;20040;-67
2023/12/18 01:50:06;;;;;;;2.40;2.08;;;6.00;99.90;;;;;;5038140;28;20041;-66
2023/12/18 01:52:33;;;;;;;3.17;1.65;;;6.00;99.90;;;;;;5042774;28;20603;-66
2023/12/18 01:55:00;;;;;;;3.83;1.88;;;6.00;99.90;;;;;;5044891;28;20037;-66
2023/12/18 01:57:27;;;;;;;2.67;1.83;;;6.00;99.90;;;;;;5043959;28;20037;-66
2023/12/18 01:59:53;;;;;;;2.53;1.85;;;6.00;99.90;;;;;;5038946;28;20033;-67
2023/12/18 02:02:19;;;;;;;2.85;1.67;;;6.00;99.90;;;;;;5044583;28;20068;-67
2023/12/18 02:04:46;;;;;;;2.03;1.63;;;6.00;99.90;;;;;;5042142;28;20025;-67
2023/12/18 02:07:12;;;;;;;1.77;1.50;;;6.00;99.90;;;;;;5032382;28;20033;-66
2023/12/18 02:09:40;;;;;;;2.70;1.83;;;6.00;99.90;;;;;;5039460;28;20417;-66
2023/12/18 02:12:06;;;;;;;2.88;1.70;;;6.00;99.90;;;;;;5039727;28;20511;-67
2023/12/18 02:14:32;;;;;;;4.88;1.92;;;6.00;99.90;;;;;;5040961;28;20033;-67
2023/12/18 02:16:58;;;;;;;2.13;1.77;;;6.00;99.90;;;;;;5041028;28;20064;-66
2023/12/18 02:19:25;;;;;;;3.08;1.80;;;6.10;99.90;;;;;;5041329;28;20068;-66
2023/12/18 02:21:53;;;;;;;4.90;2.15;;;6.10;99.90;;;;;;5043230;28;20032;-66
2023/12/18 02:24:19;;;;;;;3.08;1.83;;;6.20;99.90;;;;;;5042556;28;20501;-66
2023/12/18 02:26:46;;;;;;;3.88;1.88;;;6.20;99.90;;;;;;5036090;28;20086;-66
2023/12/18 02:29:12;;;;;;;2.55;1.45;;;6.20;99.90;;;;;;5043409;28;20108;-66
2023/12/18 02:31:39;;;;;;;3.05;2.00;;;6.20;99.90;;;;;;5038036;28;20053;-66
2023/12/18 02:34:05;;;;;;;2.65;1.77;;;6.30;99.90;;;;;;5045752;28;20029;-66
2023/12/18 02:36:31;;;;;;;2.47;1.67;;;6.30;99.90;;;;;;5046407;28;20527;-66
2023/12/18 02:38:57;;;;;;;2.53;1.85;;;6.40;99.90;;;;;;5043643;28;20469;-66
2023/12/18 02:41:23;;;;;;;2.95;2.20;;;6.50;99.90;;;;;;5039733;28;20055;-66
2023/12/18 02:43:49;;;;;;;3.10;2.13;;;6.50;99.90;;;;;;5039153;28;20036;-66
2023/12/18 02:46:15;;;;;;;3.45;2.17;;;6.60;99.90;;;;;;5047927;28;20033;-66
2023/12/18 02:48:41;;;;;;;3.10;2.10;;;6.70;99.90;;;;;;5042111;28;20448;-66
2023/12/18 02:51:07;;;;;;;3.70;2.10;;;6.70;99.90;;;;;;5043648;28;20056;-67
2023/12/18 02:53:33;;;;;;;3.67;1.75;;;6.80;99.90;;;;;;5048286;28;20087;-67
2023/12/18 02:55:59;;;;;;;3.75;2.50;;;6.90;99.90;;;;;;5045191;28;20124;-66
2023/12/18 02:58:25;;;;;;;6.00;2.78;;;7.00;99.90;;;;;;5046575;28;20119;-67
2023/12/18 03:00:51;;;;;;;5.32;2.85;;;7.10;99.90;;;;;;5045636;28;20063;-67
2023/12/18 03:03:17;;;;;;;4.95;2.83;;;7.10;99.90;;;;;;5036216;28;20033;-67
2023/12/18 03:05:43;;;;;;;5.28;2.95;;;7.20;99.90;;;;;;5043858;28;20077;-67
2023/12/18 03:08:08;;;;;;;6.93;3.53;;;7.20;99.90;;;;;;5040157;28;20025;-67
2023/12/18 03:10:34;;;;;;;7.22;3.45;;;7.40;99.90;;;;;;5046236;28;20041;-66
2023/12/18 03:13:00;;;;;;;6.40;3.17;;;7.50;99.90;;;;;;5048406;28;20025;-67
2023/12/18 03:15:26;;;;;;;8.70;3.67;;;7.50;99.90;;;;;;5042636;28;20041;-67
2023/12/18 03:17:52;;;;;;;4.72;3.08;;;7.60;99.90;;;;;;5046037;28;20028;-67
2023/12/18 03:20:18;;;;;;;6.85;3.65;;;7.70;99.90;;;;;;5047555;28;20110;-66
2023/12/18 03:22:44;;;;;;;5.50;3.45;;;7.80;99.90;;;;;;5046844;28;20090;-66
2023/12/18 03:25:10;;;;;;;6.38;3.78;;;7.90;99.90;;;;;;5045788;28;20041;-67
2023/12/18 03:27:36;;;;;;;5.80;3.13;;;8.00;99.90;;;;;;5044731;28;20488;-67
2023/12/18 03:30:02;;;;;;;7.68;3.40;;;8.00;99.90;;;;;;5044879;28;20033;-67
2023/12/18 03:32:27;;;;;;;7.35;3.47;;;8.10;99.90;;;;;;5038489;28;20044;-67
2023/12/18 03:34:53;;;;;;;6.28;3.53;;;8.10;99.90;;;;;;5037912;28;20029;-67
2023/12/18 03:37:19;;;;;;;5.72;3.80;;;8.20;99.90;;;;;;5033463;28;20029;-66
2023/12/18 03:39:45;;;;;;;6.63;4.30;;;8.30;99.90;;;;;;5035900;28;20060;-67
2023/12/18 03:42:11;;;;;;;7.28;4.28;;;8.30;99.90;;;;;;5042542;28;20068;-67
2023/12/18 03:44:37;;;;;;;11.85;5.53;;;8.40;99.90;;;;;;5044200;28;20039;-67
2023/12/18 03:47:03;;;;;;;9.30;5.10;;;8.40;99.90;;;;;;5043697;28;20484;-67
2023/12/18 03:49:29;;;;;;;10.50;5.07;;;8.20;99.90;;;;;;5041333;28;20652;-67
2023/12/18 03:51:55;;;;;;;10.35;5.55;;;8.10;99.90;;;;;;5042810;28;20028;-67
2023/12/18 03:54:21;;;;;;;13.40;5.45;;;8.20;99.90;;;;;;5047344;28;20032;-67
2023/12/18 03:56:46;;;;;;;10.07;5.38;;;8.20;99.90;;;;;;5044812;28;20060;-67
2023/12/18 03:59:12;;;;;;;9.93;6.13;;;8.20;99.90;;;;;;5046179;28;20041;-67
2023/12/18 04:01:38;;;;;;;10.30;5.70;;;8.20;99.90;;;;;;5040746;28;20120;-67
2023/12/18 04:04:04;;;;;;;9.00;5.32;;;8.30;99.90;;;;;;5037105;28;20033;-66
2023/12/18 04:06:30;;;;;;;10.10;6.00;;;8.30;99.90;;;;;;5047372;28;20036;-67
2023/12/18 04:08:56;;;;;;;15.75;6.22;;;8.40;99.90;;;;;;5039440;28;20040;-67
2023/12/18 04:11:21;;;;;;;12.35;6.25;;;8.50;99.90;;;;;;5046019;28;20033;-67
2023/12/18 04:13:48;;;;;;;11.30;6.07;;;8.50;99.90;;;;;;5042350;28;20056;-67
2023/12/18 04:16:14;;;;;;;13.48;5.93;;;8.50;99.90;;;;;;5043244;28;20124;-67
2023/12/18 04:18:40;;;;;;;13.70;6.30;;;8.50;99.90;;;;;;5045240;28;20132;-67
2023/12/18 04:21:06;;;;;;;11.02;6.38;;;8.50;99.90;;;;;;5041702;28;20025;-67
2023/12/18 04:23:31;;;;;;;11.80;5.82;;;8.50;99.90;;;;;;5040279;28;20068;-66
2023/12/18 04:25:57;;;;;;;9.02;5.85;;;8.50;99.90;;;;;;5043805;28;20034;-67
2023/12/18 04:28:23;;;;;;;11.52;6.03;;;8.50;99.90;;;;;;5043315;28;20059;-66
2023/12/18 04:30:49;;;;;;;14.02;6.28;;;8.50;99.90;;;;;;5041753;28;20032;-67
2023/12/18 04:33:15;;;;;;;10.55;5.82;;;8.50;99.90;;;;;;5040286;28;20166;-67
2023/12/18 04:35:42;;;;;;;9.73;5.63;;;8.50;99.90;;;;;;5042585;28;20120;-67
2023/12/18 04:38:07;;;;;;;9.98;6.32;;;8.50;99.90;;;;;;5041868;28;20029;-67
2023/12/18 04:40:33;;;;;;;12.52;6.20;;;8.60;99.90;;;;;;5041120;28;20500;-66
2023/12/18 04:42:59;;;;;;;9.55;6.47;;;8.60;99.90;;;;;;5038072;28;20052;-66
2023/12/18 04:45:25;;;;;;;9.70;5.47;;;8.60;99.90;;;;;;5039872;28;20040;-67
2023/12/18 04:47:51;;;;;;;12.98;6.18;;;8.50;99.90;;;;;;5040785;28;20039;-67
2023/12/18 04:50:17;;;;;;;10.32;6.22;;;8.50;99.90;;;;;;5042994;28;20029;-66
2023/12/18 04:52:43;;;;;;;10.50;6.30;;;8.50;99.90;;;;;;5038665;28;20040;-67
2023/12/18 04:55:09;;;;;;;12.57;6.18;;;8.40;99.90;;;;;;5043667;28;20548;-67
2023/12/18 04:57:35;;;;;;;10.52;5.88;;;8.40;99.90;;;;;;5044003;28;20044;-67
2023/12/18 05:00:02;;;;;;;15.77;6.65;;;8.40;99.90;;;;;;5044796;28;20417;-67
2023/12/18 05:02:28;;;;;;;11.05;6.13;;;8.40;99.90;;;;;;5043927;28;20045;-67
2023/12/18 05:04:54;;;;;;;11.95;6.13;;;8.40;99.90;;;;;;5045907;28;20174;-67
2023/12/18 05:07:20;;;;;;;11.48;6.50;;;8.40;99.90;;;;;;5044099;28;20033;-67
2023/12/18 05:09:45;;;;;;;10.90;6.43;;;8.40;99.90;;;;;;5041104;28;20144;-66
2023/12/18 05:12:11;;;;;;;10.07;6.30;;;8.40;99.90;;;;;;5040937;28;20025;-66
2023/12/18 05:14:37;;;;;;;17.20;7.30;;;8.40;99.90;;;;;;5043709;28;20056;-67
2023/12/18 05:17:03;;;;;;;12.02;6.70;;;8.30;99.90;;;;;;5034662;28;20041;-67
2023/12/18 05:19:29;;;;;;;11.88;7.70;;;8.30;99.90;;;;;;5039657;28;20044;-67
2023/12/18 05:21:55;;;;;;;12.68;7.38;;;8.30;99.90;;;;;;5038812;28;20037;-67
2023/12/18 05:24:20;;;;;;;9.95;6.30;;;8.30;99.90;;;;;;5041428;28;20033;-67
2023/12/18 05:26:46;;;;;;;9.95;5.90;;;8.30;99.90;;;;;;5042874;28;20052;-67
2023/12/18 05:29:12;;;;;;;16.77;7.75;;;8.40;99.90;;;;;;5034869;28;20045;-67
2023/12/18 05:31:38;;;;;;;18.65;8.18;;;8.40;99.90;;;;;;5045081;28;20103;-66
2023/12/18 05:34:03;;;;;;;13.55;7.47;;;8.40;99.90;;;;;;5032394;28;20033;-67
2023/12/18 05:36:30;;;;;;;16.17;8.52;;;8.50;99.90;;;;;;5034587;28;20044;-67
2023/12/18 05:38:56;;;;;;;11.77;8.10;;;8.50;99.90;;;;;;5036600;28;20043;-67
2023/12/18 05:41:22;;;;;;;16.95;9.05;;;8.50;99.90;;;;;;5031089;28;20032;-67
2023/12/18 05:43:47;;;;;;;14.98;8.38;;;8.50;99.90;;;;;;5036813;28;20033;-67
2023/12/18 05:46:14;;;;;;;15.82;8.98;;;8.50;99.90;;;;;;5030235;28;20195;-67
2023/12/18 05:48:40;;;;;;;17.00;8.07;;;8.60;99.90;;;;;;5040164;28;20029;-67
2023/12/18 05:51:05;;;;;;;15.05;7.70;;;8.50;99.90;;;;;;5042753;28;20562;-67
2023/12/18 05:53:31;;;;;;;15.27;8.82;;;8.50;99.90;;;;;;5041093;28;20047;-67
2023/12/18 05:55:57;;;;;;;18.27;8.63;;;8.50;99.90;;;;;;5040799;28;20052;-67
2023/12/18 05:58:23;;;;;;;19.67;9.88;;;8.50;99.90;;;;;;5039716;28;20037;-67
2023/12/18 06:00:49;;;;;;;15.00;8.13;;;8.50;99.90;;;;;;5044818;28;20081;-67
2023/12/18 06:03:14;;;;;;;18.17;8.88;;;8.50;99.90;;;;;;5043595;28;20037;-67
2023/12/18 06:05:40;;;;;;;20.67;9.98;;;8.60;99.90;;;;;;5033767;28;20573;-67
2023/12/18 06:08:06;;;;;;;23.80;9.00;;;8.60;99.90;;;;;;5040988;28;20033;-67
2023/12/18 06:10:32;;;;;;;19.73;9.10;;;8.60;99.90;;;;;;5047007;28;20033;-67
2023/12/18 06:12:58;;;;;;;14.85;9.27;;;8.70;99.90;;;;;;5041677;28;20028;-67
2023/12/18 06:15:23;;;;;;;11.93;7.25;;;8.70;99.90;;;;;;5049237;28;20815;-67
2023/12/18 06:17:49;;;;;;;16.52;8.25;;;8.80;99.90;;;;;;5045283;28;20120;-67
2023/12/18 06:20:15;;;;;;;15.13;8.02;;;8.80;99.90;;;;;;5048246;28;20405;-67
2023/12/18 06:22:41;;;;;;;13.93;7.68;;;8.80;99.90;;;;;;5044331;28;20037;-67
2023/12/18 06:25:07;;;;;;;12.05;6.72;;;8.80;99.90;;;;;;5044918;28;20040;-67
2023/12/18 06:27:33;;;;;;;11.38;6.63;;;8.70;99.90;;;;;;5048078;28;20631;-67
2023/12/18 06:29:59;;;;;;;11.52;7.03;;;8.70;99.90;;;;;;5048792;28;20040;-67
2023/12/18 06:32:25;;;;;;;15.07;7.03;;;8.70;99.90;;;;;;5048200;28;20075;-67
2023/12/18 06:34:51;;;;;;;10.60;6.72;;;8.70;99.90;;;;;;5046199;28;20045;-67
2023/12/18 06:37:16;;;;;;;12.07;6.32;;;8.80;99.90;;;;;;5044939;28;20041;-67
2023/12/18 06:39:42;;;;;;;9.90;6.75;;;8.90;99.90;;;;;;5043367;28;20037;-67
2023/12/18 06:42:08;;;;;;;8.75;6.22;;;8.90;99.90;;;;;;5041319;28;20034;-67
2023/12/18 06:44:34;;;;;;;15.27;7.65;;;8.80;99.90;;;;;;5043768;28;20041;-67
2023/12/18 06:47:00;;;;;;;11.93;6.65;;;8.80;99.90;;;;;;5042974;28;20029;-67
2023/12/18 06:49:26;;;;;;;9.38;6.03;;;8.80;99.90;;;;;;5040752;28;20393;-67
2023/12/18 06:51:52;;;;;;;11.70;6.60;;;8.80;99.90;;;;;;5042269;28;20025;-67
2023/12/18 06:54:18;;;;;;;11.68;6.63;;;8.80;99.90;;;;;;5043478;28;20676;-67
2023/12/18 06:56:44;;;;;;;10.38;6.05;;;8.80;99.90;;;;;;5040648;28;20433;-67
2023/12/18 06:59:10;;;;;;;12.32;6.68;;;8.90;99.90;;;;;;5044524;28;20644;-67
2023/12/18 07:01:35;;;;;;;15.18;6.82;;;8.90;99.90;;;;;;5041496;28;20032;-67
2023/12/18 07:04:02;;;;;;;11.77;6.07;;;8.80;99.90;;;;;;5047665;28;20481;-67
2023/12/18 07:06:29;;;;;;;9.20;6.55;;;8.90;99.90;;;;;;5038978;28;20044;-67
2023/12/18 07:08:55;;;;;;;11.20;6.75;;;8.90;99.90;;;;;;5042818;28;20142;-67
2023/12/18 07:11:20;;;;;;;13.90;6.82;;;8.80;99.90;;;;;;5043276;28;20486;-67
2023/12/18 07:13:46;;;;;;;24.33;14.88;;;8.80;99.90;;;;;;5041690;28;20037;-67
2023/12/18 07:16:22;;;;;;;16.02;9.02;;;8.80;99.90;;;;;;5045942;28;20071;-67
2023/12/18 07:18:48;;;;;;;19.63;11.95;;;8.90;99.90;;;;;;5045051;28;20037;-67
2023/12/18 07:21:14;;;;;;;17.02;9.93;;;8.90;99.90;;;;;;5039299;28;20502;-67
2023/12/18 07:23:42;;;;;;;16.00;8.00;;;8.90;99.90;;;;;;5044119;28;20036;-67
2023/12/18 07:26:12;;;;;;;14.98;10.68;;;8.80;99.90;;;;;;5030668;28;20881;-67
2023/12/18 07:28:41;;;;;;;15.30;8.38;;;8.80;99.90;;;;;;5031854;28;20025;-68
2023/12/18 07:31:07;;;;;;;13.40;6.78;;;8.90;99.90;;;;;;5032879;28;20079;-67
2023/12/18 07:33:35;;;;;;;14.88;7.13;;;8.90;99.90;;;;;;5044653;28;20033;-68
2023/12/18 07:36:02;;;;;;;14.98;7.20;;;8.90;99.90;;;;;;5032405;28;20057;-67
2023/12/18 07:38:29;;;;;;;10.05;6.38;;;8.90;99.90;;;;;;5033098;28;20033;-68
2023/12/18 07:40:56;;;;;;;15.50;7.38;;;8.90;99.90;;;;;;5045883;28;20052;-68
2023/12/18 07:43:22;;;;;;;12.77;6.38;;;8.90;99.90;;;;;;5047507;28;20750;-67
2023/12/18 07:45:48;;;;;;;13.18;6.93;;;8.80;99.90;;;;;;5042744;28;20035;-68
2023/12/18 07:48:14;;;;;;;12.90;7.25;;;8.80;99.90;;;;;;5046412;28;20636;-67
2023/12/18 07:50:40;;;;;;;14.48;6.80;;;8.80;99.90;;;;;;5041075;28;20035;-68
2023/12/18 07:53:06;;;;;;;16.17;7.20;;;8.80;99.90;;;;;;5045281;28;20127;-68
2023/12/18 07:55:32;;;;;;;13.88;7.00;;;8.80;99.90;;;;;;5047252;28;20481;-68
2023/12/18 07:57:58;;;;;;;12.93;6.80;;;8.80;99.90;;;;;;5046696;28;20029;-67
2023/12/18 08:00:24;;;;;;;11.27;6.55;;;8.80;99.90;;;;;;5039163;28;20124;-67
2023/12/18 08:02:49;;;;;;;12.70;6.25;;;8.70;99.90;;;;;;5047468;28;20513;-68
2023/12/18 08:05:15;;;;;;;13.02;6.85;;;8.80;99.90;;;;;;5040370;28;20571;-68
2023/12/18 08:07:41;;;;;;;10.85;5.60;;;8.80;99.90;;;;;;5044730;28;20033;-68
2023/12/18 08:10:07;;;;;;;12.07;6.53;;;8.90;99.90;;;;;;5041861;28;20029;-67
2023/12/18 08:12:34;;;;;;;13.57;6.65;;;9.00;99.90;;;;;;5044294;28;20103;-68
2023/12/18 08:14:59;;;;;;;11.30;6.32;;;9.10;99.90;;;;;;5046751;28;20021;-68
2023/12/18 08:17:25;;;;;;;11.70;6.10;;;9.10;99.90;;;;;;5040512;28;20852;-64
2023/12/18 08:19:51;;;;;;;21.30;8.52;;;9.00;99.90;;;;;;5039313;28;20032;-67
2023/12/18 08:22:17;;;;;;;12.13;6.20;;;9.00;99.90;;;;;;5041043;28;20051;-67
2023/12/18 08:24:43;;;;;;;17.90;8.88;;;9.20;99.90;;;;;;5041014;28;20045;-67
2023/12/18 08:27:09;;;;;;;15.18;10.00;;;9.20;99.90;;;;;;5045890;28;20124;-67
2023/12/18 08:29:34;;;;;;;14.68;8.43;;;9.20;99.90;;;;;;5046089;28;20037;-67
2023/12/18 08:32:00;;;;;;;12.52;6.43;;;9.20;99.90;;;;;;5033452;28;20124;-67
2023/12/18 08:34:26;;;;;;;16.83;8.43;;;9.20;99.90;;;;;;5038017;28;20139;-68
2023/12/18 08:36:53;;;;;;;14.38;7.88;;;9.20;99.90;;;;;;5042383;28;20583;-68
2023/12/18 08:39:19;;;;;;;14.25;7.28;;;9.20;99.90;;;;;;5043141;28;20511;-67
2023/12/18 08:41:47;;;;;;;14.05;8.40;;;9.20;99.90;;;;;;5041760;28;20045;-68
2023/12/18 08:44:13;;;;;;;14.82;7.57;;;9.10;99.90;;;;;;5041800;28;20060;-68
2023/12/18 08:46:39;;;;;;;32.03;12.00;;;9.20;99.90;;;;;;5040112;28;20485;-67
2023/12/18 08:49:05;;;;;;;20.60;9.25;;;9.20;99.90;;;;;;5043276;28;20111;-67
2023/12/18 08:51:30;;;;;;;28.15;11.85;;;9.10;99.90;;;;;;5037588;28;20116;-68
2023/12/18 08:53:56;;;;;;;27.88;13.88;;;9.00;99.90;;;;;;5041322;28;20029;-68
2023/12/18 08:56:24;;;;;;;12.65;7.00;;;8.90;99.90;;;;;;5045760;28;20603;-67
2023/12/18 08:58:52;;;;;;;15.00;7.40;;;9.00;99.90;;;;;;5041924;28;20037;-68
2023/12/18 09:01:18;;;;;;;20.05;10.57;;;9.10;99.90;;;;;;5039424;28;20036;-68
2023/12/18 09:03:50;;;;;;;17.90;7.88;;;9.10;99.90;;;;;;5031098;28;20025;-68
2023/12/18 09:06:16;;;;;;;17.25;9.48;;;9.20;99.90;;;;;;5045245;28;20033;-67
2023/12/18 09:08:41;;;;;;;16.17;9.55;;;9.20;99.90;;;;;;5042464;28;20516;-67
2023/12/18 09:11:08;;;;;;;16.52;8.23;;;9.20;99.90;;;;;;5042523;28;20640;-67
2023/12/18 09:13:38;;;;;;;15.38;7.82;;;9.10;99.90;;;;;;5046011;28;20769;-68
2023/12/18 09:16:05;;;;;;;13.52;7.45;;;9.20;99.90;;;;;;5035525;28;20114;-67
2023/12/18 09:18:31;;;;;;;21.30;10.15;;;9.30;99.90;;;;;;5043619;28;20037;-67
2023/12/18 09:20:57;;;;;;;22.08;13.23;;;9.10;99.90;;;;;;5040635;28;20063;-67
2023/12/18 09:23:23;;;;;;;16.23;8.90;;;9.00;99.90;;;;;;5034020;28;20068;-67
2023/12/18 09:25:49;;;;;;;16.10;9.80;;;9.00;99.90;;;;;;5039675;28;20112;-67
2023/12/18 09:28:15;;;;;;;16.67;10.40;;;9.10;99.90;;;;;;5044429;28;20032;-67
2023/12/18 09:30:42;;;;;;;16.13;7.97;;;9.10;99.90;;;;;;5045292;28;20033;-67
2023/12/18 09:33:08;;;;;;;11.45;7.53;;;9.10;99.90;;;;;;5044404;28;20587;-67
2023/12/18 09:35:34;;;;;;;17.30;10.50;;;9.20;99.90;;;;;;5045490;28;20033;-67
2023/12/18 09:38:00;;;;;;;13.65;8.68;;;9.30;99.90;;;;;;5037237;28;20471;-67
2023/12/18 09:40:26;;;;;;;13.60;7.10;;;9.30;99.90;;;;;;5034391;28;20584;-68
2023/12/18 09:42:54;;;;;;;13.30;7.32;;;9.40;99.90;;;;;;5045422;28;20040;-67
2023/12/18 09:45:22;;;;;;;10.10;5.95;;;9.40;99.90;;;;;;5035809;28;20036;-67
2023/12/18 09:47:51;;;;;;;10.15;6.65;;;9.50;99.90;;;;;;5029512;28;20029;-67
2023/12/18 09:50:17;;;;;;;10.60;6.80;;;9.60;99.90;;;;;;5044409;28;20056;-67
2023/12/18 09:53:00;;;;;;;12.30;6.65;;;9.40;99.90;;;;;;5034896;28;20075;-67
2023/12/18 09:55:27;;;;;;;10.63;6.55;;;9.20;99.90;;;;;;5036113;28;20040;-67
2023/12/18 09:57:56;;;;;;;12.50;6.60;;;9.20;99.90;;;;;;5038000;28;20045;-67
2023/12/18 10:00:23;;;;;;;15.95;8.30;;;9.20;99.90;;;;;;5041109;28;20033;-67
2023/12/18 10:02:49;;;;;;;16.13;7.05;;;9.30;99.90;;;;;;5038907;28;20123;-67
2023/12/18 10:05:15;;;;;;;12.88;7.63;;;9.20;99.90;;;;;;5040622;28;20029;-67
2023/12/18 10:07:41;;;;;;;25.73;11.80;;;9.20;99.90;;;;;;5035080;28;20441;-67
2023/12/18 10:10:07;;;;;;;26.27;13.07;;;9.20;99.90;;;;;;5034692;28;20033;-67
2023/12/18 10:12:33;;;;;;;21.90;12.23;;;9.00;99.90;;;;;;5043805;28;20114;-67
2023/12/18 10:14:59;;;;;;;57.65;26.40;;;9.00;99.90;;;;;;5042045;28;20038;-67
2023/12/18 10:17:25;;;;;;;14.88;8.68;;;9.10;99.90;;;;;;5040156;28;20582;-66
2023/12/18 10:19:51;;;;;;;15.30;8.82;;;9.00;99.90;;;;;;5042979;28;20127;-67
2023/12/18 10:22:17;;;;;;;13.90;7.90;;;9.10;99.90;;;;;;5034706;28;20168;-67
2023/12/18 10:24:44;;;;;;;13.52;7.10;;;9.20;99.90;;;;;;5035374;28;20401;-67
2023/12/18 10:27:10;;;;;;;10.77;6.90;;;9.30;99.90;;;;;;5042688;28;20029;-67
2023/12/18 10:29:36;;;;;;;11.70;7.10;;;9.50;99.90;;;;;;5037759;28;20084;-67
2023/12/18 10:32:02;;;;;;;14.23;7.05;;;9.60;99.90;;;;;;5041920;28;20033;-67
2023/12/18 10:34:28;;;;;;;16.00;8.23;;;9.70;99.90;;;;;;5035402;28;20029;-67
2023/12/18 10:36:55;;;;;;;14.40;8.02;;;9.70;99.90;;;;;;5044423;28;20413;-67
2023/12/18 10:39:29;;;;;;;12.90;7.25;;;9.70;99.90;;;;;;5035974;28;20471;-67
2023/12/18 10:41:59;;;;;;;16.35;8.57;;;9.70;99.90;;;;;;5034233;28;20038;-67
2023/12/18 10:44:29;;;;;;;14.75;6.90;;;9.60;99.90;;;;;;5043825;28;20044;-67
2023/12/18 10:46:57;;;;;;;14.40;8.00;;;9.60;99.90;;;;;;5040229;28;20045;-67
2023/12/18 10:49:26;;;;;;;11.95;6.85;;;9.70;99.90;;;;;;5044485;28;20156;-67
2023/12/18 10:51:53;;;;;;;16.25;8.93;;;9.90;99.90;;;;;;5036866;28;20082;-67
2023/12/18 10:54:20;;;;;;;18.83;9.20;;;9.90;99.90;;;;;;5036745;28;20036;-68
2023/12/18 10:56:48;;;;;;;17.63;8.93;;;9.90;99.90;;;;;;5047014;28;20036;-68
2023/12/18 10:59:17;;;;;;;13.98;8.57;;;9.90;99.90;;;;;;5046155;28;20132;-69
2023/12/18 11:01:44;;;;;;;13.80;8.23;;;9.70;99.90;;;;;;5035557;28;20029;-68
2023/12/18 11:04:12;;;;;;;15.60;7.88;;;9.60;99.90;;;;;;5045998;28;20447;-67
2023/12/18 11:06:40;;;;;;;14.32;8.13;;;9.60;99.90;;;;;;5045118;28;20116;-68
2023/12/18 11:09:06;;;;;;;17.80;8.35;;;9.70;99.90;;;;;;5043782;28;20033;-67
2023/12/18 11:11:35;;;;;;;14.05;8.02;;;9.60;99.90;;;;;;5044493;28;20515;-67
2023/12/18 11:14:07;;;;;;;14.52;7.30;;;9.60;99.90;;;;;;5042512;28;20033;-67
2023/12/18 11:16:51;;;;;;;14.52;7.90;;;9.50;99.90;;;;;;5043778;28;20037;-68
2023/12/18 11:19:35;;;;;;;14.27;8.00;;;9.60;99.90;;;;;;5043217;28;20797;-64
2023/12/18 11:22:04;;;;;;;14.80;7.80;;;9.50;99.90;;;;;;5047914;28;20063;-67
2023/12/18 11:24:37;;;;;;;16.75;8.23;;;9.40;99.90;;;;;;5037570;28;20040;-67
2023/12/18 11:27:06;;;;;;;14.63;7.93;;;9.30;99.90;;;;;;5040833;28;20052;-66
2023/12/18 11:29:43;;;;;;;17.15;8.75;;;9.30;99.90;;;;;;5042891;28;20134;-66
2023/12/18 11:32:32;;;;;;;13.68;9.23;;;9.30;99.90;;;;;;5046094;28;20195;-64
2023/12/18 11:34:58;;;;;;;18.23;9.13;;;9.20;99.90;;;;;;5036601;28;20026;-65
2023/12/18 11:37:24;;;;;;;14.18;8.02;;;9.20;99.90;;;;;;5036795;28;20036;-66
2023/12/18 11:39:50;;;;;;;16.17;9.70;;;9.30;99.90;;;;;;5047221;28;20033;-65
2023/12/18 11:42:44;;;;;;;14.93;9.43;;;9.40;99.90;;;;;;5040346;28;20515;-66
2023/12/18 11:45:11;;;;;;;12.48;7.15;;;9.40;99.90;;;;;;5047040;28;20619;-66
2023/12/18 11:47:39;;;;;;;16.67;8.10;;;9.50;99.90;;;;;;5042212;28;20531;-65
2023/12/18 11:50:06;;;;;;;13.35;7.35;;;9.60;99.90;;;;;;5044449;28;20025;-65
2023/12/18 11:52:32;;;;;;;14.32;8.38;;;9.60;99.90;;;;;;5045009;28;20033;-66
2023/12/18 11:54:58;;;;;;;23.90;11.55;;;9.60;99.90;;;;;;5040382;28;20037;-66
2023/12/18 11:57:24;;;;;;;42.42;20.92;;;9.40;99.90;;;;;;5046920;28;20070;-66
2023/12/18 11:59:50;;;;;;;29.75;23.67;;;9.50;99.90;;;;;;5044540;28;20032;-67
2023/12/18 12:02:16;;;;;;;21.20;15.35;;;9.40;99.90;;;;;;5045179;28;20035;-67
2023/12/18 12:04:43;;;;;;;27.17;18.95;;;9.40;99.90;;;;;;5044195;28;20117;-66
2023/12/18 12:07:12;;;;;;;15.63;8.77;;;9.50;99.90;;;;;;5042804;28;20047;-66
2023/12/18 12:09:40;;;;;;;18.73;10.65;;;9.50;99.90;;;;;;5046685;28;20465;-66
2023/12/18 12:12:06;;;;;;;18.38;8.82;;;9.50;99.90;;;;;;5043133;28;20101;-66
2023/12/18 12:14:32;;;;;;;19.08;11.30;;;9.50;99.90;;;;;;5040057;28;20176;-66
2023/12/18 12:17:04;;;;;;;24.63;13.85;;;9.60;99.90;;;;;;5046282;28;20043;-67
2023/12/18 12:19:34;;;;;;;16.55;9.73;;;9.40;99.90;;;;;;5037609;28;20045;-66
2023/12/18 12:22:00;;;;;;;24.75;12.70;;;9.30;99.90;;;;;;5044077;28;20086;-66
2023/12/18 12:24:26;;;;;;;29.77;17.00;;;9.40;99.90;;;;;;5041155;28;20837;-67
2023/12/18 12:26:54;;;;;;;26.33;16.20;;;9.60;99.90;;;;;;5040640;28;20044;-67
2023/12/18 12:29:20;;;;;;;14.30;8.35;;;9.70;99.90;;;;;;5038345;28;20397;-67
2023/12/18 12:31:46;;;;;;;18.58;9.57;;;9.90;99.90;;;;;;5039309;28;20033;-67
2023/12/18 12:34:14;;;;;;;24.92;12.73;;;10.10;99.90;;;;;;5036105;28;20135;-67
2023/12/18 12:36:43;;;;;;;19.17;11.13;;;10.20;99.90;;;;;;5035031;28;20040;-67
2023/12/18 12:39:08;;;;;;;17.75;9.45;;;10.10;99.90;;;;;;5029235;28;20059;-67
2023/12/18 12:41:35;;;;;;;19.08;9.60;;;10.10;99.90;;;;;;5043435;28;20037;-67
2023/12/18 12:44:01;;;;;;;17.40;8.77;;;10.10;99.90;;;;;;5032620;28;20495;-66